sensor_id;sensor_type;location;lat;lon;timestamp;pressure;altitude;pressure_sealevel;temperature;humidity
53916;BME280;39827;49.652;18.770;2023-05-12T00:01:17;74422.34;;;-149.71;60.95
53916;BME280;39827;49.652;18.770;2023-05-12T00:03:44;74428.38;;;-149.71;61.70
53916;BME280;39827;49.652;18.770;2023-05-12T00:06:09;74472.56;;;-149.71;63.48
53916;BME280;39827;49.652;18.770;2023-05-12T00:08:35;74480.59;;;-149.71;63.46
53916;BME280;39827;49.652;18.770;2023-05-12T00:11:00;74488.66;;;-149.71;63.53
53916;BME280;39827;49.652;18.770;2023-05-12T00:13:26;74458.50;;;-149.71;62.65
53916;BME280;39827;49.652;18.770;2023-05-12T00:15:53;74456.50;;;-149.71;62.87
53916;BME280;39827;49.652;18.770;2023-05-12T00:18:21;74438.41;;;-149.71;62.67
53916;BME280;39827;49.652;18.770;2023-05-12T00:20:46;74486.63;;;-149.71;63.82
53916;BME280;39827;49.652;18.770;2023-05-12T00:23:12;74520.78;;;-149.71;64.84
53916;BME280;39827;49.652;18.770;2023-05-12T00:25:38;74516.78;;;-149.71;65.41
53916;BME280;39827;49.652;18.770;2023-05-12T00:28:04;74496.69;;;-149.71;64.92
53916;BME280;39827;49.652;18.770;2023-05-12T00:30:29;74500.69;;;-149.71;64.66
53916;BME280;39827;49.652;18.770;2023-05-12T00:32:55;74500.69;;;-149.71;64.74
53916;BME280;39827;49.652;18.770;2023-05-12T00:35:20;74508.75;;;-149.71;64.53
53916;BME280;39827;49.652;18.770;2023-05-12T00:37:45;74528.84;;;-149.71;64.24
53916;BME280;39827;49.652;18.770;2023-05-12T00:40:11;74514.78;;;-149.71;64.55
53916;BME280;39827;49.652;18.770;2023-05-12T00:42:37;74530.84;;;-149.71;64.68
53916;BME280;39827;49.652;18.770;2023-05-12T00:45:02;74524.81;;;-149.71;64.15
53916;BME280;39827;49.652;18.770;2023-05-12T00:47:29;74516.78;;;-149.71;64.19
53916;BME280;39827;49.652;18.770;2023-05-12T00:49:54;74526.81;;;-149.71;64.33
53916;BME280;39827;49.652;18.770;2023-05-12T00:52:20;74550.94;;;-149.71;65.51
53916;BME280;39827;49.652;18.770;2023-05-12T00:54:47;74544.91;;;-149.71;64.99
53916;BME280;39827;49.652;18.770;2023-05-12T00:57:13;74550.94;;;-149.71;65.46
53916;BME280;39827;49.652;18.770;2023-05-12T00:59:38;74560.97;;;-149.71;64.76
53916;BME280;39827;49.652;18.770;2023-05-12T01:02:04;74544.91;;;-149.71;64.10
53916;BME280;39827;49.652;18.770;2023-05-12T01:04:30;74524.81;;;-149.71;64.11
53916;BME280;39827;49.652;18.770;2023-05-12T01:07:05;74530.84;;;-149.71;64.33
53916;BME280;39827;49.652;18.770;2023-05-12T01:09:34;74538.88;;;-149.71;64.67
53916;BME280;39827;49.652;18.770;2023-05-12T01:11:59;74538.88;;;-149.71;64.52
53916;BME280;39827;49.652;18.770;2023-05-12T01:14:25;74556.97;;;-149.71;65.21
53916;BME280;39827;49.652;18.770;2023-05-12T01:16:52;74544.91;;;-149.71;65.04
53916;BME280;39827;49.652;18.770;2023-05-12T01:21:54;74540.88;;;-149.71;64.71
53916;BME280;39827;49.652;18.770;2023-05-12T01:24:20;74554.94;;;-149.71;64.88
53916;BME280;39827;49.652;18.770;2023-05-12T01:26:48;74550.94;;;-149.71;64.19
53916;BME280;39827;49.652;18.770;2023-05-12T01:29:14;74550.94;;;-149.71;63.88
53916;BME280;39827;49.652;18.770;2023-05-12T01:31:40;74536.88;;;-149.71;63.49
53916;BME280;39827;49.652;18.770;2023-05-12T01:34:05;74542.91;;;-149.71;63.68
53916;BME280;39827;49.652;18.770;2023-05-12T01:36:31;74556.97;;;-149.71;65.24
53916;BME280;39827;49.652;18.770;2023-05-12T01:38:56;74573.03;;;-149.71;64.13
53916;BME280;39827;49.652;18.770;2023-05-12T01:41:21;74571.03;;;-149.71;64.69
53916;BME280;39827;49.652;18.770;2023-05-12T01:43:47;74571.03;;;-149.71;65.56
53916;BME280;39827;49.652;18.770;2023-05-12T01:46:12;74595.13;;;-149.71;65.03
53916;BME280;39827;49.652;18.770;2023-05-12T01:48:37;74569.03;;;-149.71;64.80
53916;BME280;39827;49.652;18.770;2023-05-12T01:51:06;74558.97;;;-149.71;63.88
53916;BME280;39827;49.652;18.770;2023-05-12T01:53:32;74556.97;;;-149.71;63.47
53916;BME280;39827;49.652;18.770;2023-05-12T01:55:57;74565.00;;;-149.71;64.98
53916;BME280;39827;49.652;18.770;2023-05-12T01:58:23;74540.88;;;-149.71;63.92
53916;BME280;39827;49.652;18.770;2023-05-12T02:00:48;74556.97;;;-149.71;63.91
53916;BME280;39827;49.652;18.770;2023-05-12T02:03:13;74536.88;;;-149.71;63.24
53916;BME280;39827;49.652;18.770;2023-05-12T02:05:39;74554.94;;;-149.71;64.35
53916;BME280;39827;49.652;18.770;2023-05-12T02:08:04;74560.97;;;-149.71;63.89
53916;BME280;39827;49.652;18.770;2023-05-12T02:10:30;74552.94;;;-149.71;63.88
53916;BME280;39827;49.652;18.770;2023-05-12T02:12:55;74569.03;;;-149.71;64.98
53916;BME280;39827;49.652;18.770;2023-05-12T02:15:21;74579.06;;;-149.71;64.88
53916;BME280;39827;49.652;18.770;2023-05-12T02:17:46;74554.94;;;-149.71;63.82
53916;BME280;39827;49.652;18.770;2023-05-12T02:20:11;74554.94;;;-149.71;63.49
53916;BME280;39827;49.652;18.770;2023-05-12T02:22:37;74558.97;;;-149.71;63.00
53916;BME280;39827;49.652;18.770;2023-05-12T02:25:02;74544.91;;;-149.71;63.25
53916;BME280;39827;49.652;18.770;2023-05-12T02:27:28;74567.00;;;-149.71;61.60
53916;BME280;39827;49.652;18.770;2023-05-12T02:29:56;74569.03;;;-149.71;62.42
53916;BME280;39827;49.652;18.770;2023-05-12T02:32:21;74573.03;;;-149.71;62.88
53916;BME280;39827;49.652;18.770;2023-05-12T02:34:47;74577.06;;;-149.71;64.27
53916;BME280;39827;49.652;18.770;2023-05-12T02:37:12;74579.06;;;-149.71;63.21
53916;BME280;39827;49.652;18.770;2023-05-12T02:39:37;74554.94;;;-149.71;62.31
53916;BME280;39827;49.652;18.770;2023-05-12T02:42:03;74548.94;;;-149.71;63.51
53916;BME280;39827;49.652;18.770;2023-05-12T02:44:29;74550.94;;;-149.71;63.52
53916;BME280;39827;49.652;18.770;2023-05-12T02:46:54;74589.13;;;-149.71;64.13
53916;BME280;39827;49.652;18.770;2023-05-12T02:49:19;74581.06;;;-149.71;64.10
53916;BME280;39827;49.652;18.770;2023-05-12T02:51:45;74565.00;;;-149.71;64.42
53916;BME280;39827;49.652;18.770;2023-05-12T02:54:12;74571.03;;;-149.71;65.27
53916;BME280;39827;49.652;18.770;2023-05-12T02:56:37;74575.03;;;-149.71;65.96
53916;BME280;39827;49.652;18.770;2023-05-12T02:59:03;74623.28;;;-149.71;67.42
53916;BME280;39827;49.652;18.770;2023-05-12T03:01:28;74645.38;;;-149.71;68.45
53916;BME280;39827;49.652;18.770;2023-05-12T03:03:54;74621.25;;;-149.71;68.21
53916;BME280;39827;49.652;18.770;2023-05-12T03:06:19;74621.25;;;-149.71;68.27
53916;BME280;39827;49.652;18.770;2023-05-12T03:08:45;74621.25;;;-149.71;67.94
53916;BME280;39827;49.652;18.770;2023-05-12T03:11:11;74647.38;;;-149.71;67.58
53916;BME280;39827;49.652;18.770;2023-05-12T03:13:36;74637.34;;;-149.71;68.32
53916;BME280;39827;49.652;18.770;2023-05-12T03:16:02;74639.34;;;-149.71;68.45
53916;BME280;39827;49.652;18.770;2023-05-12T03:18:27;74657.44;;;-149.71;68.42
53916;BME280;39827;49.652;18.770;2023-05-12T03:20:53;74649.38;;;-149.71;68.27
53916;BME280;39827;49.652;18.770;2023-05-12T03:23:18;74655.41;;;-149.71;67.31
53916;BME280;39827;49.652;18.770;2023-05-12T03:25:44;74657.44;;;-149.71;67.57
53916;BME280;39827;49.652;18.770;2023-05-12T03:28:09;74639.34;;;-149.71;67.50
53916;BME280;39827;49.652;18.770;2023-05-12T03:30:35;74645.38;;;-149.71;67.09
53916;BME280;39827;49.652;18.770;2023-05-12T03:33:00;74619.25;;;-149.71;64.92
53916;BME280;39827;49.652;18.770;2023-05-12T03:35:26;74605.19;;;-149.71;66.59
53916;BME280;39827;49.652;18.770;2023-05-12T03:37:51;74641.34;;;-149.71;68.35
53916;BME280;39827;49.652;18.770;2023-05-12T03:40:16;74621.25;;;-149.71;65.49
53916;BME280;39827;49.652;18.770;2023-05-12T03:42:43;74585.09;;;-149.71;65.94
53916;BME280;39827;49.652;18.770;2023-05-12T03:45:10;74607.19;;;-149.71;66.66
53916;BME280;39827;49.652;18.770;2023-05-12T03:47:35;74593.13;;;-149.71;66.24
53916;BME280;39827;49.652;18.770;2023-05-12T03:50:01;74599.16;;;-149.71;66.63
53916;BME280;39827;49.652;18.770;2023-05-12T03:52:26;74603.19;;;-149.71;65.62
53916;BME280;39827;49.652;18.770;2023-05-12T03:54:52;74577.06;;;-149.71;65.84
53916;BME280;39827;49.652;18.770;2023-05-12T03:57:17;74567.00;;;-149.71;65.78
53916;BME280;39827;49.652;18.770;2023-05-12T03:59:42;74573.03;;;-149.71;65.88
53916;BME280;39827;49.652;18.770;2023-05-12T04:02:08;74583.09;;;-149.71;66.07
53916;BME280;39827;49.652;18.770;2023-05-12T04:04:36;74585.09;;;-149.71;66.12
53916;BME280;39827;49.652;18.770;2023-05-12T04:07:01;74581.06;;;-149.71;64.07
53916;BME280;39827;49.652;18.770;2023-05-12T04:09:30;74540.88;;;-149.71;63.99
53916;BME280;39827;49.652;18.770;2023-05-12T04:11:55;74544.91;;;-149.71;64.65
53916;BME280;39827;49.652;18.770;2023-05-12T04:14:21;74546.91;;;-149.71;65.19
53916;BME280;39827;49.652;18.770;2023-05-12T04:16:46;74542.91;;;-149.71;65.27
53916;BME280;39827;49.652;18.770;2023-05-12T04:19:12;74542.91;;;-149.71;64.55
53916;BME280;39827;49.652;18.770;2023-05-12T04:21:37;74516.78;;;-149.71;63.35
53916;BME280;39827;49.652;18.770;2023-05-12T04:24:03;74528.84;;;-149.71;64.68
53916;BME280;39827;49.652;18.770;2023-05-12T04:26:29;74560.97;;;-149.71;65.72
53916;BME280;39827;49.652;18.770;2023-05-12T04:28:54;74558.97;;;-149.71;63.38
53916;BME280;39827;49.652;18.770;2023-05-12T04:31:20;74512.75;;;-149.71;62.12
53916;BME280;39827;49.652;18.770;2023-05-12T04:33:45;74482.63;;;-149.71;63.23
53916;BME280;39827;49.652;18.770;2023-05-12T04:36:11;74516.78;;;-149.71;62.89
53916;BME280;39827;49.652;18.770;2023-05-12T04:38:38;74492.66;;;-149.71;61.63
53916;BME280;39827;49.652;18.770;2023-05-12T04:41:04;74454.50;;;-149.71;61.18
53916;BME280;39827;49.652;18.770;2023-05-12T04:43:30;74450.47;;;-149.71;61.05
53916;BME280;39827;49.652;18.770;2023-05-12T04:45:56;74424.34;;;-149.71;61.63
53916;BME280;39827;49.652;18.770;2023-05-12T04:48:21;74436.41;;;-149.71;62.90
53916;BME280;39827;49.652;18.770;2023-05-12T04:50:47;74436.41;;;-149.71;63.37
53916;BME280;39827;49.652;18.770;2023-05-12T04:53:16;74440.44;;;-149.71;63.38
53916;BME280;39827;49.652;18.770;2023-05-12T04:55:41;74448.47;;;-149.71;62.86
53916;BME280;39827;49.652;18.770;2023-05-12T04:58:12;74406.28;;;-149.71;61.19
53916;BME280;39827;49.652;18.770;2023-05-12T05:00:38;74368.09;;;-149.71;61.47
53916;BME280;39827;49.652;18.770;2023-05-12T05:03:03;74378.13;;;-149.71;61.04
53916;BME280;39827;49.652;18.770;2023-05-12T05:05:29;74356.03;;;-149.71;58.97
53916;BME280;39827;49.652;18.770;2023-05-12T05:07:55;74287.72;;;-149.71;57.13
53916;BME280;39827;49.652;18.770;2023-05-12T05:10:20;74241.53;;;-149.71;58.87
53916;BME280;39827;49.652;18.770;2023-05-12T05:12:46;74199.31;;;-149.71;54.83
53916;BME280;39827;49.652;18.770;2023-05-12T05:15:11;74135.03;;;-149.71;51.47
53916;BME280;39827;49.652;18.770;2023-05-12T05:17:37;74068.72;;;-149.71;53.34
53916;BME280;39827;49.652;18.770;2023-05-12T05:20:02;74040.59;;;-149.71;50.05
53916;BME280;39827;49.652;18.770;2023-05-12T05:22:28;73992.41;;;-149.71;46.00
53916;BME280;39827;49.652;18.770;2023-05-12T05:24:53;73910.03;;;-149.71;46.38
53916;BME280;39827;49.652;18.770;2023-05-12T05:27:19;73851.75;;;-149.71;44.87
53916;BME280;39827;49.652;18.770;2023-05-12T05:29:44;73817.63;;;-149.71;42.79
53916;BME280;39827;49.652;18.770;2023-05-12T05:32:10;73751.31;;;-149.71;42.24
53916;BME280;39827;49.652;18.770;2023-05-12T05:34:36;73715.16;;;-149.71;41.77
53916;BME280;39827;49.652;18.770;2023-05-12T05:37:01;73648.88;;;-149.71;40.08
53916;BME280;39827;49.652;18.770;2023-05-12T05:39:26;73644.84;;;-149.71;39.99
53916;BME280;39827;49.652;18.770;2023-05-12T05:41:55;73614.72;;;-149.71;41.53
53916;BME280;39827;49.652;18.770;2023-05-12T05:44:21;73580.56;;;-149.71;39.65
53916;BME280;39827;49.652;18.770;2023-05-12T05:46:46;73510.25;;;-149.71;38.33
53916;BME280;39827;49.652;18.770;2023-05-12T05:49:12;73490.19;;;-149.71;37.66
53916;BME280;39827;49.652;18.770;2023-05-12T05:51:37;73480.13;;;-149.71;37.38
53916;BME280;39827;49.652;18.770;2023-05-12T05:54:03;73429.91;;;-149.71;36.84
53916;BME280;39827;49.652;18.770;2023-05-12T05:56:28;73419.88;;;-149.71;35.81
53916;BME280;39827;49.652;18.770;2023-05-12T05:58:54;73379.69;;;-149.71;37.54
53916;BME280;39827;49.652;18.770;2023-05-12T06:01:21;73327.47;;;-149.71;35.52
53916;BME280;39827;49.652;18.770;2023-05-12T06:03:46;73285.28;;;-149.71;34.89
53916;BME280;39827;49.652;18.770;2023-05-12T06:06:12;73305.38;;;-149.71;35.21
53916;BME280;39827;49.652;18.770;2023-05-12T06:08:37;73233.06;;;-149.71;34.59
53916;BME280;39827;49.652;18.770;2023-05-12T06:11:03;73215.00;;;-149.71;34.68
53916;BME280;39827;49.652;18.770;2023-05-12T06:13:28;73190.88;;;-149.71;34.86
53916;BME280;39827;49.652;18.770;2023-05-12T06:15:53;73196.91;;;-149.71;33.50
53916;BME280;39827;49.652;18.770;2023-05-12T06:18:21;73142.69;;;-149.71;32.56
53916;BME280;39827;49.652;18.770;2023-05-12T06:20:46;73122.59;;;-149.71;33.21
53916;BME280;39827;49.652;18.770;2023-05-12T06:23:12;73104.50;;;-149.71;33.13
53916;BME280;39827;49.652;18.770;2023-05-12T06:25:37;73094.47;;;-149.71;32.40
53916;BME280;39827;49.652;18.770;2023-05-12T06:28:03;73066.34;;;-149.71;32.59
53916;BME280;39827;49.652;18.770;2023-05-12T06:30:28;73034.22;;;-149.71;32.03
53916;BME280;39827;49.652;18.770;2023-05-12T06:32:53;73012.13;;;-149.71;31.35
53916;BME280;39827;49.652;18.770;2023-05-12T06:35:20;72963.91;;;-149.71;31.49
53916;BME280;39827;49.652;18.770;2023-05-12T06:37:45;72903.66;;;-149.71;31.61
53916;BME280;39827;49.652;18.770;2023-05-12T06:40:15;72885.59;;;-149.71;31.00
53916;BME280;39827;49.652;18.770;2023-05-12T06:42:41;72857.47;;;-149.71;29.72
53916;BME280;39827;49.652;18.770;2023-05-12T06:45:07;72817.31;;;-149.71;29.62
53916;BME280;39827;49.652;18.770;2023-05-12T06:47:32;72773.13;;;-149.71;29.09
53916;BME280;39827;49.652;18.770;2023-05-12T06:49:58;72781.16;;;-149.71;29.50
53916;BME280;39827;49.652;18.770;2023-05-12T06:52:23;72747.00;;;-149.71;30.41
53916;BME280;39827;49.652;18.770;2023-05-12T06:54:49;72740.97;;;-149.71;29.32
53916;BME280;39827;49.652;18.770;2023-05-12T06:57:15;72759.06;;;-149.71;29.64
53916;BME280;39827;49.652;18.770;2023-05-12T06:59:40;72791.19;;;-149.71;28.16
53916;BME280;39827;49.652;18.770;2023-05-12T07:02:05;72849.44;;;-149.71;29.21
53916;BME280;39827;49.652;18.770;2023-05-12T07:04:31;72917.72;;;-149.71;29.33
53916;BME280;39827;49.652;18.770;2023-05-12T07:06:56;72973.97;;;-149.71;30.08
53916;BME280;39827;49.652;18.770;2023-05-12T07:09:22;73004.09;;;-149.71;30.33
53916;BME280;39827;49.652;18.770;2023-05-12T07:11:47;73152.72;;;-149.71;31.87
53916;BME280;39827;49.652;18.770;2023-05-12T07:14:13;73122.59;;;-149.71;31.87
53916;BME280;39827;49.652;18.770;2023-05-12T07:16:38;73148.69;;;-149.71;31.07
53916;BME280;39827;49.652;18.770;2023-05-12T07:19:03;73136.66;;;-149.71;30.20
53916;BME280;39827;49.652;18.770;2023-05-12T07:21:30;73146.69;;;-149.71;29.67
53916;BME280;39827;49.652;18.770;2023-05-12T07:23:56;73198.91;;;-149.71;30.37
53916;BME280;39827;49.652;18.770;2023-05-12T07:26:21;73215.00;;;-149.71;31.19
53916;BME280;39827;49.652;18.770;2023-05-12T07:28:48;73186.88;;;-149.71;30.64
53916;BME280;39827;49.652;18.770;2023-05-12T07:31:14;73208.97;;;-149.71;30.92
53916;BME280;39827;49.652;18.770;2023-05-12T07:33:39;73194.91;;;-149.71;31.33
53916;BME280;39827;49.652;18.770;2023-05-12T07:36:05;73172.81;;;-149.71;30.79
53916;BME280;39827;49.652;18.770;2023-05-12T07:38:30;73122.59;;;-149.71;30.46
53916;BME280;39827;49.652;18.770;2023-05-12T07:40:58;73082.41;;;-149.71;30.52
53916;BME280;39827;49.652;18.770;2023-05-12T07:43:23;73082.41;;;-149.71;30.55
53916;BME280;39827;49.652;18.770;2023-05-12T07:45:49;73066.34;;;-149.71;30.33
53916;BME280;39827;49.652;18.770;2023-05-12T07:48:14;73000.06;;;-149.71;30.33
53916;BME280;39827;49.652;18.770;2023-05-12T07:50:39;72986.00;;;-149.71;30.01
53916;BME280;39827;49.652;18.770;2023-05-12T07:53:05;72969.94;;;-149.71;29.91
53916;BME280;39827;49.652;18.770;2023-05-12T07:55:31;72893.63;;;-149.71;30.34
53916;BME280;39827;49.652;18.770;2023-05-12T07:57:59;72901.66;;;-149.71;29.73
53916;BME280;39827;49.652;18.770;2023-05-12T08:00:25;72841.41;;;-149.71;29.00
53916;BME280;39827;49.652;18.770;2023-05-12T08:02:51;72761.06;;;-149.71;28.12
53916;BME280;39827;49.652;18.770;2023-05-12T08:05:16;72720.91;;;-149.71;27.53
53916;BME280;39827;49.652;18.770;2023-05-12T08:07:42;72632.53;;;-149.71;28.24
53916;BME280;39827;49.652;18.770;2023-05-12T08:10:09;72510.03;;;-149.71;27.10
53916;BME280;39827;49.652;18.770;2023-05-12T08:12:34;72542.16;;;-149.71;26.76
53916;BME280;39827;49.652;18.770;2023-05-12T08:15:00;72518.06;;;-149.71;26.44
53916;BME280;39827;49.652;18.770;2023-05-12T08:17:25;72598.38;;;-149.71;26.65
53916;BME280;39827;49.652;18.770;2023-05-12T08:19:50;72732.94;;;-149.71;26.79
53916;BME280;39827;49.652;18.770;2023-05-12T08:22:16;72696.78;;;-149.71;27.00
53916;BME280;39827;49.652;18.770;2023-05-12T08:24:41;72560.22;;;-149.71;27.04
53916;BME280;39827;49.652;18.770;2023-05-12T08:27:07;72461.81;;;-149.71;25.48
53916;BME280;39827;49.652;18.770;2023-05-12T08:29:32;72393.53;;;-149.71;25.96
53916;BME280;39827;49.652;18.770;2023-05-12T08:31:58;72301.16;;;-149.71;26.10
53916;BME280;39827;49.652;18.770;2023-05-12T08:34:24;72455.81;;;-149.71;27.13
53916;BME280;39827;49.652;18.770;2023-05-12T08:36:53;72508.00;;;-149.71;27.73
53916;BME280;39827;49.652;18.770;2023-05-12T08:39:19;72435.72;;;-149.71;27.61
53916;BME280;39827;49.652;18.770;2023-05-12T08:41:51;72427.69;;;-149.71;27.87
53916;BME280;39827;49.652;18.770;2023-05-12T08:44:21;72516.06;;;-149.71;26.41
53916;BME280;39827;49.652;18.770;2023-05-12T08:46:47;72720.91;;;-149.71;27.76
53916;BME280;39827;49.652;18.770;2023-05-12T08:49:16;72773.13;;;-149.71;27.90
53916;BME280;39827;49.652;18.770;2023-05-12T08:51:42;72785.16;;;-149.71;28.65
53916;BME280;39827;49.652;18.770;2023-05-12T08:54:11;72835.38;;;-149.71;29.52
53916;BME280;39827;49.652;18.770;2023-05-12T08:56:37;72857.47;;;-149.71;29.49
53916;BME280;39827;49.652;18.770;2023-05-12T08:59:04;72877.56;;;-149.71;28.81
53916;BME280;39827;49.652;18.770;2023-05-12T09:01:36;72893.63;;;-149.71;31.23
53916;BME280;39827;49.652;18.770;2023-05-12T09:04:05;72895.63;;;-149.71;30.99
53916;BME280;39827;49.652;18.770;2023-05-12T09:06:31;72969.94;;;-149.71;29.94
53916;BME280;39827;49.652;18.770;2023-05-12T09:08:57;72963.91;;;-149.71;30.02
53916;BME280;39827;49.652;18.770;2023-05-12T09:11:22;72982.00;;;-149.71;29.75
53916;BME280;39827;49.652;18.770;2023-05-12T09:14:00;73008.09;;;-149.71;30.64
53916;BME280;39827;49.652;18.770;2023-05-12T09:16:32;73030.19;;;-149.71;30.73
53916;BME280;39827;49.652;18.770;2023-05-12T09:18:59;73072.38;;;-149.71;31.05
53916;BME280;39827;49.652;18.770;2023-05-12T09:21:26;73076.38;;;-149.71;31.49
53916;BME280;39827;49.652;18.770;2023-05-12T09:23:57;73072.38;;;-149.71;33.15
53916;BME280;39827;49.652;18.770;2023-05-12T09:26:23;73096.47;;;-149.71;34.02
53916;BME280;39827;49.652;18.770;2023-05-12T09:28:52;73110.53;;;-149.71;32.15
53916;BME280;39827;49.652;18.770;2023-05-12T09:31:20;73082.41;;;-149.71;34.27
53916;BME280;39827;49.652;18.770;2023-05-12T09:33:47;73088.44;;;-149.71;34.75
53916;BME280;39827;49.652;18.770;2023-05-12T09:36:20;73094.47;;;-149.71;36.35
53916;BME280;39827;49.652;18.770;2023-05-12T09:38:45;73150.72;;;-149.71;34.54
53916;BME280;39827;49.652;18.770;2023-05-12T09:41:11;73148.69;;;-149.71;31.03
53916;BME280;39827;49.652;18.770;2023-05-12T09:43:43;73140.66;;;-149.71;31.57
53916;BME280;39827;49.652;18.770;2023-05-12T09:46:10;73116.56;;;-149.71;32.21
53916;BME280;39827;49.652;18.770;2023-05-12T09:48:36;73102.50;;;-149.71;31.68
53916;BME280;39827;49.652;18.770;2023-05-12T09:51:03;73082.41;;;-149.71;33.05
53916;BME280;39827;49.652;18.770;2023-05-12T09:53:28;73074.38;;;-149.71;35.62
53916;BME280;39827;49.652;18.770;2023-05-12T09:55:54;73060.31;;;-149.71;30.95
53916;BME280;39827;49.652;18.770;2023-05-12T09:58:19;73036.22;;;-149.71;33.98
53916;BME280;39827;49.652;18.770;2023-05-12T10:00:45;73028.19;;;-149.71;34.21
53916;BME280;39827;49.652;18.770;2023-05-12T10:03:15;72945.84;;;-149.71;29.57
53916;BME280;39827;49.652;18.770;2023-05-12T10:05:48;72917.72;;;-149.71;29.12
53916;BME280;39827;49.652;18.770;2023-05-12T10:08:19;72986.00;;;-149.71;30.18
53916;BME280;39827;49.652;18.770;2023-05-12T10:10:48;72973.97;;;-149.71;29.32
53916;BME280;39827;49.652;18.770;2023-05-12T10:13:16;73008.09;;;-149.71;30.71
53916;BME280;39827;49.652;18.770;2023-05-12T10:15:43;73020.16;;;-149.71;30.77
53916;BME280;39827;49.652;18.770;2023-05-12T10:18:09;73026.19;;;-149.71;30.46
53916;BME280;39827;49.652;18.770;2023-05-12T10:20:35;73022.16;;;-149.71;31.41
53916;BME280;39827;49.652;18.770;2023-05-12T10:23:01;73040.25;;;-149.71;35.45
53916;BME280;39827;49.652;18.770;2023-05-12T10:25:28;73048.28;;;-149.71;35.79
53916;BME280;39827;49.652;18.770;2023-05-12T10:27:55;73080.41;;;-149.71;35.27
53916;BME280;39827;49.652;18.770;2023-05-12T10:30:22;73096.47;;;-149.71;35.58
53916;BME280;39827;49.652;18.770;2023-05-12T10:32:48;73098.50;;;-149.71;37.12
53916;BME280;39827;49.652;18.770;2023-05-12T10:35:14;73080.41;;;-149.71;34.74
53916;BME280;39827;49.652;18.770;2023-05-12T10:37:41;73058.31;;;-149.71;30.77
53916;BME280;39827;49.652;18.770;2023-05-12T10:40:07;73068.34;;;-149.71;30.67
53916;BME280;39827;49.652;18.770;2023-05-12T10:42:40;72998.06;;;-149.71;30.42
53916;BME280;39827;49.652;18.770;2023-05-12T10:45:17;72963.91;;;-149.71;28.42
53916;BME280;39827;49.652;18.770;2023-05-12T10:47:43;72979.97;;;-149.71;28.76
53916;BME280;39827;49.652;18.770;2023-05-12T10:50:09;72927.75;;;-149.71;29.22
53916;BME280;39827;49.652;18.770;2023-05-12T10:52:55;72915.72;;;-149.71;29.15
53916;BME280;39827;49.652;18.770;2023-05-12T10:55:40;72901.66;;;-149.71;29.01
53916;BME280;39827;49.652;18.770;2023-05-12T10:58:10;72901.66;;;-149.71;29.40
53916;BME280;39827;49.652;18.770;2023-05-12T11:00:49;72945.84;;;-149.71;29.75
53916;BME280;39827;49.652;18.770;2023-05-12T11:03:16;72992.03;;;-149.71;29.44
53916;BME280;39827;49.652;18.770;2023-05-12T11:05:57;73048.28;;;-149.71;29.71
53916;BME280;39827;49.652;18.770;2023-05-12T11:08:23;73044.25;;;-149.71;30.72
53916;BME280;39827;49.652;18.770;2023-05-12T11:10:49;73056.31;;;-149.71;29.95
53916;BME280;39827;49.652;18.770;2023-05-12T11:13:15;73078.41;;;-149.71;29.96
53916;BME280;39827;49.652;18.770;2023-05-12T11:15:43;73110.53;;;-149.71;31.44
53916;BME280;39827;49.652;18.770;2023-05-12T11:18:08;73178.84;;;-149.71;30.34
53916;BME280;39827;49.652;18.770;2023-05-12T11:20:34;73174.81;;;-149.71;30.36
53916;BME280;39827;49.652;18.770;2023-05-12T11:22:59;73208.97;;;-149.71;30.04
53916;BME280;39827;49.652;18.770;2023-05-12T11:25:26;73223.03;;;-149.71;30.27
53916;BME280;39827;49.652;18.770;2023-05-12T11:27:52;73194.91;;;-149.71;30.48
53916;BME280;39827;49.652;18.770;2023-05-12T11:30:17;73182.84;;;-149.71;30.02
53916;BME280;39827;49.652;18.770;2023-05-12T11:32:44;73160.75;;;-149.71;30.68
53916;BME280;39827;49.652;18.770;2023-05-12T11:35:13;73126.59;;;-149.71;30.15
53916;BME280;39827;49.652;18.770;2023-05-12T11:37:39;73108.53;;;-149.71;31.04
53916;BME280;39827;49.652;18.770;2023-05-12T11:40:16;73102.50;;;-149.71;30.65
53916;BME280;39827;49.652;18.770;2023-05-12T11:42:42;73072.38;;;-149.71;30.70
53916;BME280;39827;49.652;18.770;2023-05-12T11:47:45;73050.28;;;-149.71;30.32
53916;BME280;39827;49.652;18.770;2023-05-12T11:50:11;73008.09;;;-149.71;30.02
53916;BME280;39827;49.652;18.770;2023-05-12T11:52:36;73050.28;;;-149.71;30.15
53916;BME280;39827;49.652;18.770;2023-05-12T11:55:02;73060.31;;;-149.71;29.60
53916;BME280;39827;49.652;18.770;2023-05-12T11:57:33;73070.38;;;-149.71;29.17
53916;BME280;39827;49.652;18.770;2023-05-12T12:00:06;73102.50;;;-149.71;30.25
53916;BME280;39827;49.652;18.770;2023-05-12T12:02:33;73138.66;;;-149.71;30.18
53916;BME280;39827;49.652;18.770;2023-05-12T12:05:00;73170.78;;;-149.71;29.66
53916;BME280;39827;49.652;18.770;2023-05-12T12:07:33;73194.91;;;-149.71;30.62
53916;BME280;39827;49.652;18.770;2023-05-12T12:12:38;73200.94;;;-149.71;30.11
53916;BME280;39827;49.652;18.770;2023-05-12T12:15:04;73182.84;;;-149.71;30.70
53916;BME280;39827;49.652;18.770;2023-05-12T12:17:30;73148.69;;;-149.71;30.08
53916;BME280;39827;49.652;18.770;2023-05-12T12:19:56;73116.56;;;-149.71;30.29
53916;BME280;39827;49.652;18.770;2023-05-12T12:22:21;73116.56;;;-149.71;30.79
53916;BME280;39827;49.652;18.770;2023-05-12T12:24:47;73124.59;;;-149.71;30.55
53916;BME280;39827;49.652;18.770;2023-05-12T12:27:13;73124.59;;;-149.71;30.06
53916;BME280;39827;49.652;18.770;2023-05-12T12:29:38;73104.50;;;-149.71;29.81
53916;BME280;39827;49.652;18.770;2023-05-12T12:32:04;73098.50;;;-149.71;29.55
53916;BME280;39827;49.652;18.770;2023-05-12T12:34:29;73082.41;;;-149.71;28.83